Raul Flores

Recruteur en chef - Juan Aurich
22 Oct 2028
Dimanche
Processus

Personnalité

Adaptabilité (6) Ambition (13) Controverse (3) Loyauté (11) Pression (5) Professionnalisme (14) Sportivité (19) Tempérament (18)

Profil

Style d'entraînement Démocratique
Diplôme Continental A
Détermination 5
Gestion des joueurs 6
Motivation 4
Discipline 8
Satisfaction professionnelle
100%
Fatigue
0%
Rôle Recruteur en chef
Salaire 67.7K p/s
Contrat 14.03.2030

Performance

Comportement Bon
Efficacité de l'entraînement
31%
Développement des joueurs
50%
Prévention des blessures
30%
Mise en place tactique
20%

Événements récents

A participé à une réunion de recrutement 7j
A participé à une réunion de recrutement 14j
A participé à une réunion de recrutement 21j
A participé à une réunion de recrutement 28j
A participé à une réunion de recrutement 35j
A participé à une réunion de recrutement 42j
A participé à une réunion de recrutement 49j
A participé à une réunion de recrutement 56j

Suivi en cours

153
Joueur Club Statut Capacité Confiance Observé Dernière observation Dernier vote
Renato Aquino Alianza Lima Refusé 91 / 90 72% 1 26.06.2028 -
Ryan Graydon Salford City Actif 112 / 114 40% 10 29.05.2028 -
Kimarni Smith Newport County Actif 95 / 100 40% 3 29.05.2028 -
Vyacheslav Grulev Nizhniy Novgorod Actif 115 / 109 40% 6 28.05.2028 -
Louis Flower Crawley Town Actif 99 / 92 40% 2 28.05.2028 -
Miro Arsenal Tula Actif 112 / 129 40% 8 27.05.2028 -
Emanuele Schimmenti Potenza Actif 118 / 118 40% 7 25.05.2028 -
Louis Appéré Cambridge United Actif 111 / 105 40% 6 25.05.2028 -
André Shinyashiki Plymouth Argyle Actif 103 / 101 40% 2 25.05.2028 -
Jack Vale Sorrento Actif 94 / 99 40% 7 24.05.2028 -
Guillaume Furrer Lecco Actif 118 / 96 40% 1 23.05.2028 -
Gabriele Gori Ascoli Actif 110 / 106 40% 3 22.05.2028 -
Tyler Roberts Mansfield Town Actif 98 / 94 40% 4 21.05.2028 -
Thomas Schlupp BA All Stars Actif 106 / 124 40% 6 19.05.2028 -
Kylian Kouassi Colchester United Actif 98 / 109 40% 1 16.05.2028 -
Matty Stevens AFC Wimbledon Actif 119 / 115 40% 7 14.05.2028 -
Emanuele Scipioni Monopoli Actif 111 / 100 40% 2 14.05.2028 -
Luca Vido Union Brescia Actif 107 / 119 40% 3 09.05.2028 -
Joshua Ajala Walsall Actif 111 / 101 40% 3 08.05.2028 -
Gennaro Tutino Sampdoria Actif 118 / 134 40% 1 08.05.2028 -
Kyle Wootton Stockport County Actif 124 / 124 40% 4 07.05.2028 -
Layton Stewart Barnet Actif 109 / 108 40% 2 07.05.2028 -
Wesley Pomba Rukh Actif 117 / 111 40% 3 06.05.2028 -
Timur Suleimanov Nizhniy Novgorod Actif 129 / 131 40% 2 06.05.2028 -
Gianluca D'Auria Potenza Actif 97 / 95 40% 1 06.05.2028 -
Paolo Yrizar Chernomorets Actif 88 / 100 40% 5 04.05.2028 -
Seidu Basit Ashanti Gold Actif 94 / 114 40% 6 02.05.2028 -
Nicola Rauti Vicenza Actif 113 / 102 40% 1 28.04.2028 -
Danny Butterworth Accrington Stanley Actif 103 / 89 40% 1 28.04.2028 -
Bashar Musa US Forces Armees Actif 80 / 88 40% 3 27.04.2028 -
Calum Kavanagh Oldham Athletic Actif 114 / 103 40% 3 27.04.2028 -
Justin Obikwu Queens Park Rangers Actif 102 / 121 40% 1 23.04.2028 -
Brayan Gil Baltika Actif 133 / 137 40% 2 22.04.2028 -
Alan Cisnero Exeter City Actif 93 / 110 40% 4 20.04.2028 -
Mikhail Ignatov Sochi Actif 121 / 120 40% 5 20.04.2028 -
Anthony Scully Shrewsbury Town Actif 89 / 100 40% 2 18.04.2028 -
Samuel Kalu Botev Plovdiv Actif 129 / 123 40% 4 15.04.2028 -
Marco Tumminello Benevento Actif 124 / 113 40% 2 13.04.2028 -
Johnson Amuzu Medeama Actif 99 / 99 40% 1 13.04.2028 -
Matthias Phaëton CSKA Sofia Actif 109 / 121 40% 2 12.04.2028 -
Kelly Saravanan Veracruz Actif 124 / 107 40% 1 10.04.2028 -
Fábio Jaló Barnsley Actif 103 / 116 40% 1 08.04.2028 -
Aaron Drinan Swindon Town Actif 115 / 108 40% 1 05.04.2028 -
Luis Caicedo Spartak 1918 Actif 93 / 109 40% 4 30.03.2028 -
Tyler Walton Bromley Actif 99 / 80 40% 1 30.03.2028 -
Simone Mazzocchi Cosenza Actif 129 / 113 40% 2 27.03.2028 -
Harry Leonard Rukh Actif 107 / 109 40% 4 21.03.2028 -
Ioannis Pittas CSKA Sofia Actif 118 / 109 40% 3 20.03.2028 -
Vegard Erlien Tromso Actif 129 / 116 40% 1 19.03.2028 -
Igor Neves Paysandu Actif 103 / 104 40% 1 17.03.2028 -
Victor Adeboyejo Cotonsport Garoua Actif 101 / 95 40% 2 16.03.2028 -
Papa Ndiaga Yade Oleksandriya Actif 100 / 110 40% 1 15.03.2028 -
Matías Contrera Hrvatski Dragovoljac Actif 103 / 103 40% 1 10.03.2028 -
Jalal Abdullai Molde Actif 131 / 125 40% 1 09.03.2028 -
Vladislav Sarveli Nizhniy Novgorod Actif 113 / 115 40% 2 07.03.2028 -
Ole Sæter Valerenga Actif 122 / 128 40% 1 06.03.2028 -
Erik Botheim Viking Actif 140 / 112 40% 4 05.03.2028 -
Juan Pablo Ramírez Chernomorets Actif 87 / 89 40% 2 03.03.2028 -
Sergio Riffo Kolkheti Actif 102 / 100 40% 5 29.02.2028 -
Dato Mchedlidze Tskhinvali Actif 99 / 101 40% 2 29.02.2028 -
Luca Meirelles Kudrivka Actif 121 / 130 40% 3 25.02.2028 -
Pedro Marques Apollon Actif 122 / 112 40% 1 25.02.2028 -
Stephen Humphrys Bradford City Actif 124 / 116 40% 2 24.02.2028 -
Mohamed Ofkir Valerenga Actif 108 / 112 40% 1 20.02.2028 -
François Kamano Sochi Actif 116 / 130 40% 1 20.02.2028 -
Indiana Vassilev Philadelphia Union Actif 118 / 113 40% 2 19.02.2028 -
Timo Werner San Jose Earthquakes Actif 134 / 118 40% 2 18.02.2028 -
Vladimir Khubulov Dinamo Makhachkala Actif 99 / 119 40% 1 12.02.2028 -
Sagir Arce Saburtalo Actif 112 / 115 40% 1 11.02.2028 -
Leandro Suhr Boston River Actif 115 / 111 40% 2 10.02.2028 -
Nahuel Sena Cerro Actif 109 / 107 40% 1 10.02.2028 -
Jonás Luna Wanderers Actif 128 / 132 40% 1 10.02.2028 -
Federico Martínez MFK Ruzomberok Actif 132 / 115 40% 6 08.02.2028 -
Alejo Cruz Juventud Actif 127 / 121 40% 1 08.02.2028 -
Ivo Costantino River Plate Actif 108 / 110 40% 1 08.02.2028 -
Juan Mendoza Güemes Actif 98 / 98 40% 1 05.01.2028 -
Lautaro Gordillo Colegiales Actif 108 / 114 40% 1 05.01.2028 -
Lorent Tolaj Plymouth Argyle Actif 117 / 113 40% 2 28.06.2027 -
Malik Mothersille Stockport County Actif 114 / 119 40% 1 14.06.2027 -
Matej Trusa DAC Dunajska Streda Actif 129 / 128 40% 3 31.12.2026 -
Yeangel Montero Naxxar Lions Actif 104 / 93 40% 1 26.11.2026 -
Gabriel Monjes Hamrun Spartans Actif 82 / 97 40% 1 22.11.2026 -
Brayan Alcócer Oleksandriya Actif 94 / 100 40% 1 21.11.2026 -
Luka Jović CFR Cluj Actif 147 / 146 40% 2 20.11.2026 -
Armstrong Oko-Flex Levski Actif 123 / 103 40% 6 18.11.2026 -
Germán Berterame Inter Miami CF Actif 121 / 128 40% 2 17.11.2026 -
Marcos Cuenca Zaragoza Actif 107 / 113 40% 6 16.11.2026 -
Martin Sekulić Ural Actif 115 / 121 40% 3 16.11.2026 -
Job Ochieng Real Sociedad Actif 93 / 98 40% 2 14.11.2026 -
Callum Robinson Poltava Actif 119 / 107 40% 1 14.11.2026 -
Rodrigo Mosqueira Stjarnan Actif 102 / 122 40% 6 13.11.2026 -
Jorge Gonzalez Viitorul Actif 88 / 99 40% 2 12.11.2026 -
Petar Musa FC Dallas Actif 125 / 141 40% 1 12.11.2026 -
Ammar Ramadan DAC Dunajska Streda Actif 134 / 127 40% 4 11.11.2026 -
Marcelo Torres Gimnasia La Plata Actif 116 / 118 40% 7 10.11.2026 -
Jáder Valencia Deportes Tolima Actif 117 / 108 40% 1 09.11.2026 -
David Mazuch FK Senica Actif 104 / 92 40% 1 01.11.2026 -
Kwadwo Duah Ludogorets Actif 137 / 133 40% 4 30.10.2026 -
Nicolás Sosa Racing Actif 120 / 119 40% 2 29.10.2026 -
Denzel Jubitana Neftchi Actif 126 / 119 40% 1 28.10.2026 -
Dylan Cabral Arsenal Actif 94 / 95 40% 2 27.10.2026 -
Gaspar Duarte Rosario Central Actif 110 / 118 40% 1 23.10.2026 -
Adalberto Peñaranda Deportivo Tachira Actif 118 / 114 40% 6 19.10.2026 -
Mustapha Sangaré Levski Actif 113 / 132 40% 2 19.10.2026 -
Julen Lobete Málaga Actif 111 / 103 40% 1 19.10.2026 -
Daniel Nikolic Haladas Actif 101 / 92 40% 1 16.10.2026 -
Alejandro Rincon Llaneros Actif 96 / 93 40% 2 11.10.2026 -
Mohamed Konaté Akhmat Grozny Actif 113 / 97 40% 1 11.10.2026 -
César Magallan Estudiantes de Merida Actif 105 / 107 40% 3 07.10.2026 -
Albin Andersson Falkenberg Actif 111 / 104 40% 1 07.10.2026 -
Rafael Arace Caracas Actif 100 / 108 40% 2 06.10.2026 -
Brandon Hanlan Doncaster Rovers Actif 100 / 104 40% 1 04.10.2026 -
José Rivas Gamboa Trujillanos Actif 97 / 105 40% 3 28.09.2026 -
Marco Bustillo Zamora Actif 105 / 105 40% 2 26.09.2026 -
Ramiro Ruiz Rodríguez Atlético Tucumán Actif 127 / 125 40% 6 24.09.2026 -
Mauricio Márquez Caracas Actif 103 / 93 40% 3 23.09.2026 -
Thiago Ponce Rosario Central Actif 90 / 104 40% 1 23.09.2026 -
Carlos Ramírez Zulia Actif 104 / 90 40% 3 20.09.2026 -
Luciano Inverso Betis Actif 97 / 125 40% 1 19.09.2026 -
Gonzalo Tapia Palestino Actif 106 / 94 40% 2 17.09.2026 -
Maximo Ingravidi Colón Actif 99 / 109 40% 1 17.09.2026 -
Nahuel Roldán Deportivo La Coruña Actif 90 / 98 40% 1 16.09.2026 -
Diego Méndez Tacuarembo Actif 100 / 84 40% 2 14.09.2026 -
Alberto Benítez Villalba Torpedo Kutaisi Actif 103 / 95 40% 3 13.09.2026 -
Jonathan Cañete Portuguesa Actif 115 / 102 40% 3 12.09.2026 -
Timothy Zechariah Rivers United Actif 100 / 100 40% 1 12.09.2026 -
José Pérez Portuguesa Actif 99 / 86 40% 1 11.09.2026 -
Richard Celis Zamora Actif 104 / 107 40% 2 08.09.2026 -
Ronny Maza Aragua Actif 91 / 108 40% 2 08.09.2026 -
Tobías Ganduglia Independiente Rivadavia Actif 96 / 97 40% 1 08.09.2026 -
Genaro Rossi San Martín SJ Actif 109 / 103 40% 3 03.09.2026 -
Fabián Ahumada Samtredia Actif 79 / 104 40% 1 02.09.2026 -
Lucas González Nacional Actif 110 / 106 40% 2 01.09.2026 -
Ronaldo Peña Deportivo Lara Actif 97 / 94 40% 3 01.09.2026 -
Alexander Rondón Oliveros Deportivo Tachira Actif 95 / 96 40% 1 31.08.2026 -
Rodrigo Pollero Deportivo Tachira Actif 111 / 99 40% 3 30.08.2026 -
Maksim Samorodov Akhmat Grozny Actif 109 / 127 40% 1 30.08.2026 -
Dávid Ďuriš Rosenborg Actif 118 / 132 40% 1 29.08.2026 -
Junior Paredes Trujillanos Actif 105 / 112 40% 1 27.08.2026 -
Rafael Moreno Atletico Venezuela Actif 110 / 114 40% 1 27.08.2026 -
Eryc Castillo Alianza Lima Actif 112 / 130 40% 1 20.08.2026 -
Miguel Celis Estudiantes de Merida Actif 93 / 96 40% 1 18.08.2026 -
Jeriel De Santis Caracas Actif 103 / 111 40% 1 16.08.2026 -
Exon Arzú Carabobo Actif 100 / 101 40% 2 15.08.2026 -
José Balza Deportivo Tachira Actif 104 / 109 40% 1 15.08.2026 -
Italo Regalado Cesar Vallejo Actif 110 / 108 40% 1 11.08.2026 -
Richard Figueroa Deportivo Lara Actif 109 / 95 40% 1 04.08.2026 -
Kyle Joseph Middlesbrough Actif 101 / 111 40% 1 04.08.2026 -
Santiago González Sporting Cristal Actif 121 / 126 40% 1 04.08.2026 -
Alexander Guerra Estudiantes de Merida Actif 96 / 88 40% 1 04.08.2026 -
Nicolás Contín Gimnasia y Tiro Actif 110 / 108 40% 1 01.08.2026 -
Octavio Bianchi Gimnasia y Esgrima Actif 111 / 105 40% 1 01.08.2026 -
Emiliano González Almagro Actif 120 / 104 40% 1 01.08.2026 -